Time;durP1;ratioP1;P1;durP2;ratioP2;P2;SDS_P1;SDS_P2;PMS_P1;PMS_P2;Temp;Humidity;BMP_temperature;BMP_pressure;BME280_temperature;BME280_humidity;BME280_pressure;Samples;Min_cycle;Max_cycle;Signal;HPM_P1;HPM_P2
2021/08/24 00:02:20;;;;;;;5.68;4.55;;;;;;;;;;10274511;28;20049;-56
2021/08/24 00:07:18;;;;;;;5.63;4.70;;;;;;;;;;10275742;28;20548;-56
2021/08/24 00:12:17;;;;;;;7.22;4.28;;;;;;;;;;10275826;28;20052;-56
2021/08/24 00:17:16;;;;;;;6.30;4.75;;;;;;;;;;10275254;28;20068;-56
2021/08/24 00:22:15;;;;;;;5.25;4.60;;;;;;;;;;10275736;28;20088;-55
2021/08/24 00:27:13;;;;;;;6.85;4.47;;;;;;;;;;10275062;28;20076;-56
2021/08/24 00:32:11;;;;;;;4.95;4.45;;;;;;;;;;10275473;28;20434;-56
2021/08/24 00:37:11;;;;;;;5.55;5.05;;;;;;;;;;10275475;28;20056;-55
2021/08/24 00:42:10;;;;;;;4.47;4.07;;;;;;;;;;10275302;28;20048;-56
2021/08/24 00:47:10;;;;;;;5.30;4.80;;;;;;;;;;10275121;28;20092;-56
2021/08/24 00:52:10;;;;;;;5.45;4.95;;;;;;;;;;10274975;28;20077;-54
2021/08/24 00:57:11;;;;;;;7.50;4.60;;;;;;;;;;10275042;28;20139;-56
2021/08/24 01:02:11;;;;;;;8.52;4.63;;;;;;;;;;10274939;28;20045;-56
2021/08/24 01:07:15;;;;;;;4.63;4.13;;;;;;;;;;10274563;28;20072;-54
2021/08/24 01:12:20;;;;;;;6.18;4.97;;;;;;;;;;10279381;28;20069;-54
2021/08/24 01:17:21;;;;;;;5.13;4.50;;;;;;;;;;10281887;28;20494;-55
2021/08/24 01:22:35;;;;;;;5.15;4.65;;;;;;;;;;10281984;28;20060;-52
2021/08/24 01:27:37;;;;;;;5.32;4.82;;;;;;;;;;10281871;28;20084;-56
2021/08/24 01:32:50;;;;;;;8.18;4.85;;;;;;;;;;10282173;28;20044;-54
2021/08/24 01:37:52;;;;;;;5.50;4.70;;;;;;;;;;10281672;28;20080;-54
2021/08/24 01:42:52;;;;;;;7.05;4.78;;;;;;;;;;10280617;28;20049;-54
2021/08/24 01:47:51;;;;;;;6.25;4.50;;;;;;;;;;10279999;28;20534;-56
2021/08/24 01:52:54;;;;;;;10.77;4.93;;;;;;;;;;10280859;28;20052;-56
2021/08/24 01:57:56;;;;;;;6.00;4.85;;;;;;;;;;10280382;28;20099;-56
2021/08/24 02:02:58;;;;;;;5.10;4.60;;;;;;;;;;10280074;28;20095;-57
2021/08/24 02:08:00;;;;;;;4.15;3.78;;;;;;;;;;10280506;28;20037;-58
2021/08/24 02:13:01;;;;;;;6.32;5.05;;;;;;;;;;10280502;28;20049;-55
2021/08/24 02:18:00;;;;;;;5.82;5.22;;;;;;;;;;10280240;28;20107;-57
2021/08/24 02:23:03;;;;;;;5.45;4.93;;;;;;;;;;10279129;28;20159;-57
2021/08/24 02:28:03;;;;;;;6.47;4.80;;;;;;;;;;10278882;28;20486;-56
2021/08/24 02:33:03;;;;;;;6.72;5.13;;;;;;;;;;10279576;28;20406;-57
2021/08/24 02:38:05;;;;;;;7.80;5.72;;;;;;;;;;10279341;28;20049;-57
2021/08/24 02:43:09;;;;;;;5.95;4.47;;;;;;;;;;10279074;28;20044;-57
2021/08/24 02:48:10;;;;;;;8.38;6.00;;;;;;;;;;10278562;28;20049;-55
2021/08/24 02:53:11;;;;;;;7.25;5.63;;;;;;;;;;10278946;28;20052;-57
2021/08/24 02:58:09;;;;;;;10.20;6.13;;;;;;;;;;10278551;28;20056;-57
2021/08/24 03:03:08;;;;;;;7.90;5.47;;;;;;;;;;10290203;28;20044;-57
2021/08/24 03:08:06;;;;;;;8.07;6.70;;;;;;;;;;10301702;28;20080;-57
2021/08/24 03:13:09;;;;;;;7.45;5.88;;;;;;;;;;10289678;28;20073;-55
2021/08/24 03:18:11;;;;;;;8.33;7.27;;;;;;;;;;10290469;28;20064;-56
2021/08/24 03:23:11;;;;;;;12.13;8.55;;;;;;;;;;10295939;28;20079;-57
2021/08/24 03:28:14;;;;;;;14.90;8.50;;;;;;;;;;10284658;28;20162;-56
2021/08/24 03:33:12;;;;;;;12.15;8.77;;;;;;;;;;10293552;28;20049;-56
2021/08/24 03:38:11;;;;;;;14.13;8.30;;;;;;;;;;10277726;28;20494;-61
2021/08/24 03:43:09;;;;;;;11.75;7.18;;;;;;;;;;10272107;28;20080;-59
2021/08/24 03:48:09;;;;;;;7.50;6.80;;;;;;;;;;10272142;28;20491;-59
2021/08/24 03:53:07;;;;;;;8.32;6.90;;;;;;;;;;10274223;28;20128;-59
2021/08/24 03:58:05;;;;;;;7.25;6.32;;;;;;;;;;10275792;28;20079;-59
2021/08/24 04:03:04;;;;;;;10.93;7.15;;;;;;;;;;10276205;28;20083;-59
2021/08/24 04:08:04;;;;;;;7.10;6.40;;;;;;;;;;10275980;28;20497;-59
2021/08/24 04:13:03;;;;;;;9.95;7.80;;;;;;;;;;10276547;28;20088;-59
2021/08/24 04:18:01;;;;;;;14.18;12.73;;;;;;;;;;10275852;28;20099;-59
2021/08/24 04:23:00;;;;;;;21.00;13.82;;;;;;;;;;10275659;28;20112;-60
2021/08/24 04:27:59;;;;;;;8.40;6.88;;;;;;;;;;10275679;28;20049;-60
2021/08/24 04:32:58;;;;;;;11.70;5.60;;;;;;;;;;10275743;28;20553;-60
2021/08/24 04:37:56;;;;;;;9.82;6.95;;;;;;;;;;10275705;28;20077;-61
2021/08/24 04:42:55;;;;;;;11.73;7.03;;;;;;;;;;10274838;28;20498;-59
2021/08/24 04:47:54;;;;;;;9.27;6.20;;;;;;;;;;10280335;28;20095;-59
2021/08/24 04:52:53;;;;;;;10.30;8.63;;;;;;;;;;10280524;28;20072;-58
2021/08/24 04:57:51;;;;;;;6.80;5.97;;;;;;;;;;10281236;28;20095;-60
2021/08/24 05:02:50;;;;;;;14.55;7.15;;;;;;;;;;10281157;28;20529;-59
2021/08/24 05:07:50;;;;;;;13.73;7.65;;;;;;;;;;10282104;28;20080;-59
2021/08/24 05:12:49;;;;;;;13.93;8.10;;;;;;;;;;10281857;28;20080;-59
2021/08/24 05:17:48;;;;;;;9.70;8.57;;;;;;;;;;10282820;28;20083;-58
2021/08/24 05:22:47;;;;;;;9.38;8.38;;;;;;;;;;10281659;28;20049;-59
2021/08/24 05:27:47;;;;;;;9.95;7.53;;;;;;;;;;10281910;28;20495;-59
2021/08/24 05:32:45;;;;;;;10.52;7.25;;;;;;;;;;10281677;28;20044;-58
2021/08/24 05:37:44;;;;;;;11.20;7.80;;;;;;;;;;10281528;28;20045;-60
2021/08/24 05:42:43;;;;;;;11.98;6.45;;;;;;;;;;10280734;28;20052;-60
2021/08/24 05:47:42;;;;;;;12.00;7.75;;;;;;;;;;10281645;28;20095;-60
2021/08/24 05:52:41;;;;;;;8.32;5.70;;;;;;;;;;10281020;28;20080;-60
2021/08/24 05:57:39;;;;;;;9.63;5.70;;;;;;;;;;10279896;28;20057;-60
2021/08/24 06:02:38;;;;;;;11.73;5.38;;;;;;;;;;10280614;28;20068;-60
2021/08/24 06:07:38;;;;;;;7.60;5.47;;;;;;;;;;10280446;28;20080;-61
2021/08/24 06:12:36;;;;;;;6.18;5.57;;;;;;;;;;10280302;28;20074;-61
2021/08/24 06:17:35;;;;;;;11.27;6.03;;;;;;;;;;10280349;28;20052;-60
2021/08/24 06:22:33;;;;;;;14.48;5.60;;;;;;;;;;10279892;28;20047;-60
2021/08/24 06:27:33;;;;;;;10.90;5.18;;;;;;;;;;10279832;28;20084;-60
2021/08/24 06:32:32;;;;;;;11.20;5.53;;;;;;;;;;10279291;28;20041;-60
2021/08/24 06:37:31;;;;;;;10.43;5.22;;;;;;;;;;10279453;28;20049;-60
2021/08/24 06:42:30;;;;;;;6.63;5.15;;;;;;;;;;10278881;28;20461;-60
2021/08/24 06:47:29;;;;;;;6.63;4.65;;;;;;;;;;10278208;28;20099;-59
2021/08/24 06:52:27;;;;;;;18.85;6.65;;;;;;;;;;10278608;28;20068;-60
2021/08/24 06:57:26;;;;;;;8.77;5.38;;;;;;;;;;10278551;28;20075;-60
2021/08/24 07:02:24;;;;;;;11.20;5.20;;;;;;;;;;10277618;28;20041;-60
2021/08/24 07:07:24;;;;;;;10.38;5.13;;;;;;;;;;10277453;28;20080;-59
2021/08/24 07:12:23;;;;;;;6.93;5.28;;;;;;;;;;10277933;28;20075;-59
2021/08/24 07:17:23;;;;;;;5.53;4.22;;;;;;;;;;10277414;28;20045;-60
2021/08/24 07:22:21;;;;;;;9.80;5.45;;;;;;;;;;10277499;28;20041;-59
2021/08/24 07:27:21;;;;;;;10.88;8.43;;;;;;;;;;10277284;28;20102;-60
2021/08/24 07:32:19;;;;;;;8.40;6.28;;;;;;;;;;10276940;28;20041;-61
2021/08/24 07:37:18;;;;;;;6.72;5.10;;;;;;;;;;10277259;28;20045;-61
2021/08/24 07:42:16;;;;;;;9.60;5.53;;;;;;;;;;10275391;28;20040;-59
2021/08/24 07:47:16;;;;;;;7.72;4.72;;;;;;;;;;10275769;28;20513;-60
2021/08/24 07:52:14;;;;;;;12.40;9.30;;;;;;;;;;10276651;28;20107;-61
2021/08/24 07:57:13;;;;;;;16.90;12.77;;;;;;;;;;10276556;28;20073;-60
2021/08/24 08:02:14;;;;;;;6.43;4.57;;;;;;;;;;10275958;28;20033;-60
2021/08/24 08:07:15;;;;;;;5.68;3.88;;;;;;;;;;10275889;28;20186;-59
2021/08/24 08:12:16;;;;;;;8.38;3.75;;;;;;;;;;10275991;28;20053;-59
2021/08/24 08:17:15;;;;;;;11.25;10.10;;;;;;;;;;10275785;28;20052;-59
2021/08/24 08:22:15;;;;;;;6.57;3.63;;;;;;;;;;10275176;28;20049;-59
2021/08/24 08:27:13;;;;;;;4.13;3.25;;;;;;;;;;10275155;28;20081;-60
2021/08/24 08:32:14;;;;;;;7.35;4.00;;;;;;;;;;10275360;28;20053;-60
2021/08/24 08:37:13;;;;;;;5.93;3.78;;;;;;;;;;10275511;28;20041;-59
2021/08/24 08:42:23;;;;;;;4.07;3.40;;;;;;;;;;10275192;28;20053;-61
2021/08/24 08:47:34;;;;;;;4.47;3.78;;;;;;;;;;10275292;28;20506;-60
2021/08/24 08:52:36;;;;;;;48.60;43.35;;;;;;;;;;10275236;28;20056;-58
2021/08/24 08:57:40;;;;;;;7.38;4.38;;;;;;;;;;10275193;28;20049;-61
2021/08/24 09:02:46;;;;;;;4.53;4.13;;;;;;;;;;10275017;28;20041;-59
2021/08/24 09:07:46;;;;;;;10.45;5.50;;;;;;;;;;10274956;28;20077;-61
2021/08/24 09:12:48;;;;;;;8.23;4.68;;;;;;;;;;10274559;28;20052;-61
2021/08/24 09:17:49;;;;;;;11.80;4.20;;;;;;;;;;10274954;28;20075;-60
2021/08/24 09:22:47;;;;;;;5.97;4.10;;;;;;;;;;10274981;28;20053;-60
2021/08/24 09:27:51;;;;;;;5.38;3.42;;;;;;;;;;10274564;28;20068;-60
2021/08/24 09:32:50;;;;;;;4.32;3.72;;;;;;;;;;10278272;28;20080;-60
2021/08/24 09:37:49;;;;;;;5.97;3.95;;;;;;;;;;10281650;28;20418;-60
2021/08/24 09:42:49;;;;;;;7.78;4.10;;;;;;;;;;10281714;28;20080;-60
2021/08/24 09:47:52;;;;;;;5.18;3.25;;;;;;;;;;10280900;28;20089;-60
2021/08/24 09:52:51;;;;;;;6.22;3.85;;;;;;;;;;10280648;28;20064;-60
2021/08/24 09:57:53;;;;;;;4.30;3.78;;;;;;;;;;10280810;28;20049;-59
2021/08/24 10:02:53;;;;;;;6.80;3.45;;;;;;;;;;10280578;28;20045;-60
2021/08/24 10:07:53;;;;;;;6.10;4.05;;;;;;;;;;10280441;28;20083;-60
2021/08/24 10:12:52;;;;;;;9.18;4.18;;;;;;;;;;10280388;28;20052;-60
2021/08/24 10:17:59;;;;;;;4.40;3.20;;;;;;;;;;10280241;28;20049;-59
2021/08/24 10:22:58;;;;;;;5.68;4.13;;;;;;;;;;10280209;28;20491;-60
2021/08/24 10:28:05;;;;;;;4.68;3.70;;;;;;;;;;10279810;28;20099;-60
2021/08/24 10:33:03;;;;;;;5.75;4.40;;;;;;;;;;10279654;28;20501;-59
2021/08/24 10:38:02;;;;;;;11.63;4.55;;;;;;;;;;10279360;28;20041;-59
2021/08/24 10:43:18;;;;;;;7.18;4.40;;;;;;;;;;10278690;28;20041;-59
2021/08/24 10:48:18;;;;;;;4.38;3.50;;;;;;;;;;10278341;28;20092;-60
2021/08/24 10:53:22;;;;;;;6.40;4.40;;;;;;;;;;10278828;28;20064;-60
2021/08/24 10:58:24;;;;;;;5.57;3.78;;;;;;;;;;10277277;28;20048;-60
2021/08/24 11:03:47;;;;;;;8.02;4.13;;;;;;;;;;10278520;28;20502;-60
2021/08/24 11:08:52;;;;;;;4.15;3.75;;;;;;;;;;10278176;28;20475;-60
2021/08/24 11:13:57;;;;;;;7.32;4.50;;;;;;;;;;10278047;28;20541;-59
2021/08/24 11:19:02;;;;;;;9.30;4.32;;;;;;;;;;10277323;28;20045;-60
2021/08/24 11:24:08;;;;;;;11.40;4.32;;;;;;;;;;10278118;28;20045;-60
2021/08/24 11:29:13;;;;;;;5.20;4.18;;;;;;;;;;10277895;28;20418;-60
2021/08/24 11:34:15;;;;;;;8.43;4.00;;;;;;;;;;10277614;28;20382;-60
2021/08/24 11:39:16;;;;;;;8.52;3.58;;;;;;;;;;10277382;28;20045;-61
2021/08/24 11:44:18;;;;;;;4.80;3.55;;;;;;;;;;10277288;28;20071;-61
2021/08/24 11:49:18;;;;;;;6.07;5.35;;;;;;;;;;10276253;28;20095;-61
2021/08/24 11:54:20;;;;;;;3.88;3.40;;;;;;;;;;10276064;28;20037;-60
2021/08/24 11:59:22;;;;;;;7.25;4.13;;;;;;;;;;10276425;28;20126;-58
2021/08/24 12:04:22;;;;;;;7.35;3.38;;;;;;;;;;10276761;28;20041;-60
2021/08/24 12:09:35;;;;;;;9.30;4.25;;;;;;;;;;10276224;28;20080;-59
2021/08/24 12:14:37;;;;;;;6.75;4.55;;;;;;;;;;10276484;28;20037;-60
2021/08/24 12:19:36;;;;;;;8.52;5.10;;;;;;;;;;10276433;28;20049;-58
2021/08/24 12:24:55;;;;;;;5.55;3.80;;;;;;;;;;10276313;28;20052;-60
2021/08/24 12:30:06;;;;;;;5.10;4.32;;;;;;;;;;10276011;28;20088;-61
2021/08/24 12:35:06;;;;;;;9.93;4.63;;;;;;;;;;10276196;28;20052;-61
2021/08/24 12:40:22;;;;;;;6.00;5.18;;;;;;;;;;10276027;28;20048;-61
2021/08/24 12:45:23;;;;;;;9.32;5.03;;;;;;;;;;10274715;28;20053;-61
2021/08/24 12:50:40;;;;;;;6.00;4.22;;;;;;;;;;10274573;28;20085;-60
2021/08/24 12:55:39;;;;;;;9.20;5.22;;;;;;;;;;10274920;28;20049;-61
2021/08/24 13:00:40;;;;;;;7.15;4.40;;;;;;;;;;10274471;28;20049;-61
2021/08/24 13:05:39;;;;;;;4.70;3.88;;;;;;;;;;10275069;28;20426;-61
2021/08/24 13:10:38;;;;;;;5.50;4.10;;;;;;;;;;10282177;28;20083;-60
2021/08/24 13:15:49;;;;;;;6.47;4.63;;;;;;;;;;10282004;28;20076;-60
2021/08/24 13:20:48;;;;;;;5.95;4.75;;;;;;;;;;10282014;28;20088;-59
2021/08/24 13:25:49;;;;;;;4.25;3.78;;;;;;;;;;10281669;28;20100;-59
2021/08/24 13:30:54;;;;;;;6.97;3.28;;;;;;;;;;10281846;28;20544;-59
2021/08/24 13:35:55;;;;;;;5.78;4.57;;;;;;;;;;10281282;28;20048;-59
2021/08/24 13:40:55;;;;;;;5.57;4.18;;;;;;;;;;10281861;28;20084;-59
2021/08/24 13:45:56;;;;;;;6.55;4.22;;;;;;;;;;10280664;28;20079;-59
2021/08/24 13:50:57;;;;;;;8.32;6.43;;;;;;;;;;10280714;28;20095;-58
2021/08/24 13:55:57;;;;;;;6.55;4.45;;;;;;;;;;10280812;28;20081;-59
2021/08/24 14:01:03;;;;;;;5.45;3.97;;;;;;;;;;10280259;28;20072;-59
2021/08/24 14:06:03;;;;;;;10.38;4.18;;;;;;;;;;10280542;28;20068;-60
2021/08/24 14:11:04;;;;;;;5.97;4.45;;;;;;;;;;10280392;28;20080;-59
2021/08/24 14:16:03;;;;;;;14.02;7.78;;;;;;;;;;10279782;28;20429;-59
2021/08/24 14:21:06;;;;;;;8.80;5.72;;;;;;;;;;10278439;28;20226;-59
2021/08/24 14:26:06;;;;;;;15.45;12.48;;;;;;;;;;10279384;28;20052;-59
2021/08/24 14:31:10;;;;;;;5.63;5.10;;;;;;;;;;10279006;28;20076;-60
2021/08/24 14:36:19;;;;;;;9.93;6.15;;;;;;;;;;10280254;28;20075;-60
2021/08/24 14:41:18;;;;;;;11.27;7.38;;;;;;;;;;10290585;28;20060;-60
2021/08/24 14:46:26;;;;;;;11.40;7.20;;;;;;;;;;10298506;28;20096;-60
2021/08/24 14:51:25;;;;;;;4.32;3.92;;;;;;;;;;10302167;28;20076;-59
2021/08/24 14:56:28;;;;;;;8.57;4.70;;;;;;;;;;10294704;28;20037;-59
2021/08/24 15:01:28;;;;;;;7.80;4.70;;;;;;;;;;10294653;28;20071;-59
2021/08/24 15:06:36;;;;;;;13.80;9.48;;;;;;;;;;10296963;28;20071;-60
2021/08/24 15:11:36;;;;;;;7.45;4.35;;;;;;;;;;10297938;28;20441;-59
2021/08/24 15:16:36;;;;;;;10.30;4.13;;;;;;;;;;10292799;28;20056;-61
2021/08/24 15:21:37;;;;;;;5.22;3.40;;;;;;;;;;10301348;28;20442;-60
2021/08/24 15:26:36;;;;;;;7.40;5.25;;;;;;;;;;10284744;28;20390;-60
2021/08/24 15:31:35;;;;;;;6.57;5.50;;;;;;;;;;10295869;28;20087;-59
2021/08/24 15:36:33;;;;;;;5.85;4.00;;;;;;;;;;10295197;28;20386;-62
2021/08/24 15:41:35;;;;;;;6.00;4.78;;;;;;;;;;10291500;28;20067;-59
2021/08/24 15:46:34;;;;;;;6.60;3.50;;;;;;;;;;10275302;28;20049;-60
2021/08/24 15:51:33;;;;;;;5.68;3.53;;;;;;;;;;10276576;28;20103;-60
2021/08/24 15:56:33;;;;;;;6.63;4.72;;;;;;;;;;10275673;28;20075;-60
2021/08/24 16:01:32;;;;;;;8.15;4.40;;;;;;;;;;10276777;28;20083;-60
2021/08/24 16:06:30;;;;;;;4.50;4.10;;;;;;;;;;10275018;28;20081;-60
2021/08/24 16:11:31;;;;;;;5.05;3.60;;;;;;;;;;10275707;28;20183;-60
2021/08/24 16:16:32;;;;;;;4.75;3.42;;;;;;;;;;10286534;28;20063;-59
2021/08/24 16:21:32;;;;;;;7.13;4.25;;;;;;;;;;10292323;28;20084;-60
2021/08/24 16:26:30;;;;;;;6.88;4.82;;;;;;;;;;10294742;28;20075;-60
2021/08/24 16:31:28;;;;;;;7.35;5.65;;;;;;;;;;10306917;28;20062;-60
2021/08/24 16:36:27;;;;;;;3.95;3.55;;;;;;;;;;10312505;28;20135;-59
2021/08/24 16:41:26;;;;;;;6.50;4.30;;;;;;;;;;10314465;28;20083;-59
2021/08/24 16:46:25;;;;;;;6.97;4.88;;;;;;;;;;10321966;28;20107;-59
2021/08/24 16:51:23;;;;;;;7.15;4.30;;;;;;;;;;10323919;28;20068;-59
2021/08/24 16:56:21;;;;;;;4.95;4.10;;;;;;;;;;10324016;28;20072;-59
2021/08/24 17:01:21;;;;;;;6.05;3.67;;;;;;;;;;10323265;28;20068;-59
2021/08/24 17:06:20;;;;;;;9.18;4.68;;;;;;;;;;10323347;28;20053;-59
2021/08/24 17:11:18;;;;;;;6.68;4.68;;;;;;;;;;10323007;28;20072;-60
2021/08/24 17:16:17;;;;;;;8.80;4.18;;;;;;;;;;10322952;28;20071;-59
2021/08/24 17:21:16;;;;;;;12.27;4.80;;;;;;;;;;10295442;28;20073;-59
2021/08/24 17:26:15;;;;;;;9.30;4.80;;;;;;;;;;10274191;28;20072;-59
2021/08/24 17:31:15;;;;;;;8.05;4.28;;;;;;;;;;10276934;28;20076;-59
2021/08/24 17:36:19;;;;;;;7.65;4.20;;;;;;;;;;10278736;28;20087;-60
2021/08/24 17:41:20;;;;;;;12.40;4.57;;;;;;;;;;10281858;28;20058;-60
2021/08/24 17:46:18;;;;;;;8.93;4.68;;;;;;;;;;10280961;28;20065;-59
2021/08/24 17:51:17;;;;;;;8.75;3.78;;;;;;;;;;10280936;28;20085;-60
2021/08/24 17:56:18;;;;;;;10.23;5.63;;;;;;;;;;10280673;28;20045;-59
2021/08/24 18:01:17;;;;;;;7.20;4.60;;;;;;;;;;10280523;28;20417;-58
2021/08/24 18:06:24;;;;;;;7.72;3.92;;;;;;;;;;10280016;28;20068;-59
2021/08/24 18:11:24;;;;;;;5.93;4.00;;;;;;;;;;10297199;28;20072;-58
2021/08/24 18:16:22;;;;;;;10.02;4.43;;;;;;;;;;10290484;28;20497;-59
2021/08/24 18:21:20;;;;;;;6.85;4.18;;;;;;;;;;10279918;28;20056;-58
2021/08/24 18:26:19;;;;;;;6.65;3.40;;;;;;;;;;10284938;28;20492;-59
2021/08/24 18:31:20;;;;;;;6.78;3.85;;;;;;;;;;10279178;28;20072;-59
2021/08/24 18:36:18;;;;;;;7.55;3.65;;;;;;;;;;10279191;28;20044;-59
2021/08/24 18:41:18;;;;;;;5.43;3.47;;;;;;;;;;10278643;28;20073;-60
2021/08/24 18:46:16;;;;;;;4.03;3.50;;;;;;;;;;10285344;28;20080;-58
2021/08/24 18:51:17;;;;;;;5.57;3.70;;;;;;;;;;10319031;28;20076;-58
2021/08/24 18:56:16;;;;;;;4.45;3.88;;;;;;;;;;10319393;28;20485;-58
2021/08/24 19:01:16;;;;;;;5.97;3.95;;;;;;;;;;10314019;28;20064;-56
2021/08/24 19:06:16;;;;;;;5.88;3.55;;;;;;;;;;10290409;28;20067;-58
2021/08/24 19:11:18;;;;;;;8.43;3.75;;;;;;;;;;10278297;28;20087;-59
2021/08/24 19:16:17;;;;;;;7.82;3.92;;;;;;;;;;10294183;28;20076;-59
2021/08/24 19:21:18;;;;;;;4.57;3.38;;;;;;;;;;10298807;28;20072;-59
2021/08/24 19:26:17;;;;;;;4.57;3.90;;;;;;;;;;10303108;28;20069;-58
2021/08/24 19:31:16;;;;;;;5.65;3.97;;;;;;;;;;10273310;28;20077;-59
2021/08/24 19:36:14;;;;;;;8.10;3.58;;;;;;;;;;10272842;28;20102;-58
2021/08/24 19:41:14;;;;;;;5.80;3.10;;;;;;;;;;10275655;28;20045;-59
2021/08/24 19:46:12;;;;;;;6.53;3.53;;;;;;;;;;10274188;28;20077;-57
2021/08/24 19:51:11;;;;;;;5.35;3.50;;;;;;;;;;10276083;28;20072;-58
2021/08/24 19:56:10;;;;;;;5.93;3.00;;;;;;;;;;10294254;28;20064;-60
2021/08/24 20:01:11;;;;;;;4.50;2.97;;;;;;;;;;10294727;28;20091;-59
2021/08/24 20:06:10;;;;;;;5.40;3.17;;;;;;;;;;10281297;28;20060;-59
2021/08/24 20:11:20;;;;;;;6.57;3.42;;;;;;;;;;10275801;28;20568;-59
2021/08/24 20:16:20;;;;;;;4.47;3.10;;;;;;;;;;10275440;28;20081;-59
2021/08/24 20:21:18;;;;;;;4.93;3.22;;;;;;;;;;10276465;28;20041;-59
2021/08/24 20:26:17;;;;;;;4.38;3.13;;;;;;;;;;10275695;28;20083;-58
2021/08/24 20:31:16;;;;;;;5.90;3.55;;;;;;;;;;10276021;28;20478;-58
2021/08/24 20:36:16;;;;;;;4.95;3.03;;;;;;;;;;10275927;28;20056;-59
2021/08/24 20:41:15;;;;;;;8.85;3.30;;;;;;;;;;10275966;28;20052;-58
2021/08/24 20:46:14;;;;;;;3.63;3.20;;;;;;;;;;10275384;28;20056;-60
2021/08/24 20:51:13;;;;;;;6.13;3.28;;;;;;;;;;10275820;28;20081;-59
2021/08/24 20:56:13;;;;;;;3.65;2.90;;;;;;;;;;10274979;28;20045;-58
2021/08/24 21:01:19;;;;;;;3.55;3.08;;;;;;;;;;10274815;28;20045;-59
2021/08/24 21:06:18;;;;;;;5.85;3.45;;;;;;;;;;10274966;28;20041;-59
2021/08/24 21:11:17;;;;;;;3.45;2.97;;;;;;;;;;10274570;28;20081;-58
2021/08/24 21:16:16;;;;;;;4.55;2.80;;;;;;;;;;10274818;28;20045;-58
2021/08/24 21:21:14;;;;;;;5.20;2.88;;;;;;;;;;10275298;28;20040;-59
2021/08/24 21:26:12;;;;;;;5.75;3.45;;;;;;;;;;10274468;28;20077;-58
2021/08/24 21:31:12;;;;;;;3.30;3.00;;;;;;;;;;10283662;28;20899;-59
2021/08/24 21:36:12;;;;;;;5.10;3.38;;;;;;;;;;10312784;28;20051;-58
2021/08/24 21:41:11;;;;;;;4.38;3.10;;;;;;;;;;10315157;28;20481;-59
2021/08/24 21:46:10;;;;;;;3.70;3.10;;;;;;;;;;10281794;28;20076;-59
2021/08/24 21:51:12;;;;;;;2.90;2.63;;;;;;;;;;10289791;28;20083;-59
2021/08/24 21:56:12;;;;;;;8.52;3.15;;;;;;;;;;10282158;28;20049;-59
2021/08/24 22:01:10;;;;;;;5.63;2.78;;;;;;;;;;10280770;28;20051;-59
2021/08/24 22:06:10;;;;;;;7.45;3.00;;;;;;;;;;10280724;28;20049;-59
2021/08/24 22:11:10;;;;;;;4.07;2.92;;;;;;;;;;10280343;28;20083;-59
2021/08/24 22:16:10;;;;;;;5.20;3.05;;;;;;;;;;10280387;28;20484;-59
2021/08/24 22:21:11;;;;;;;3.55;3.10;;;;;;;;;;10280091;28;20049;-59
2021/08/24 22:26:11;;;;;;;5.35;3.72;;;;;;;;;;10280461;28;20045;-58
2021/08/24 22:31:10;;;;;;;3.45;3.13;;;;;;;;;;10279612;28;20045;-58
2021/08/24 22:36:26;;;;;;;4.85;3.25;;;;;;;;;;10279417;28;20482;-58
2021/08/24 22:41:28;;;;;;;21.42;4.50;;;;;;;;;;10278836;28;20506;-59
2021/08/24 22:46:27;;;;;;;3.65;3.30;;;;;;;;;;10279070;28;20056;-59
2021/08/24 22:51:26;;;;;;;5.13;3.75;;;;;;;;;;10278702;28;20087;-59
2021/08/24 22:56:28;;;;;;;4.13;3.72;;;;;;;;;;10279016;28;20045;-59
2021/08/24 23:01:27;;;;;;;3.47;3.17;;;;;;;;;;10278346;28;20045;-59
2021/08/24 23:06:25;;;;;;;3.42;3.10;;;;;;;;;;10278047;28;20044;-59
2021/08/24 23:11:24;;;;;;;5.43;3.35;;;;;;;;;;10278151;28;20076;-59
2021/08/24 23:16:24;;;;;;;5.47;3.05;;;;;;;;;;10278012;28;20466;-59
2021/08/24 23:21:22;;;;;;;4.60;2.92;;;;;;;;;;10277995;28;20045;-59
2021/08/24 23:26:20;;;;;;;3.72;3.38;;;;;;;;;;10277583;28;20041;-58
2021/08/24 23:31:19;;;;;;;6.35;3.60;;;;;;;;;;10277377;28;20080;-59
2021/08/24 23:36:19;;;;;;;4.53;3.25;;;;;;;;;;10277126;28;20087;-59
2021/08/24 23:41:17;;;;;;;5.15;3.33;;;;;;;;;;10277147;28;20052;-60
2021/08/24 23:46:16;;;;;;;3.88;3.47;;;;;;;;;;10277019;28;20057;-58
2021/08/24 23:51:14;;;;;;;3.90;3.50;;;;;;;;;;10276786;28;20057;-58
2021/08/24 23:56:14;;;;;;;5.00;3.38;;;;;;;;;;10276838;28;20045;-59
